Briefing drone pour Saint-jorioz

Rechercher une autre localisation

Conditions de vol :


Nous sommes le : Jeudi 27 janvier 2022
Il est 19:57 UTC (20:57 LT)

Lever de soleil : 06:36 UTC (07:36 LT)
Coucher de soleil : 16:59 UTC (17:59 LT)


Warning: min(): Array must contain at least one element in /homepages/6/d509196549/htdocs/briefdrone/includes/function/metar/metar.php on line 1265

Météo

L'essentiel des conditions de vol

VIGILANCE MÉTÉO FRANCE - Haute-Savoie (74)
Pas de vigilances particulieres
METAR de LFLP
LFLP 271930Z AUTO VRB02KT 0500 R04/0650N FZFG VV/// M03/M03 Q1031

Date d'émission: 27/01/2022
Heure d'émission: 19:30 UTC
Vent: Variable 2 KT (4 km/h)
Visibilité horizontale: 0500/R04/0650N m
Température: -3 °C
Point de rosée: -3 °C
Humidité: 100%
Pression (QNH): 1031 hPa
Conditions: Brouillard givrant
TAF de LFLP
AMD LFLP 270643Z 2706/2803 CNL

Conditions prévues :

Heure d'émission : Bulletin éffectué le 27 à 06:00 UTC
Prévision : Valide du 27 a 06:00 UTC au 28 a 03:00 UTC
Nuages : à 0ft (0 m)
WEBCAM POUR SAINT-JORIOZ

Réglementation

Voler en sécurité

CARTES AERONAUTIQUE 1/500.000
CARTES VAC (LFLP)
SUP AIP




Chargement des AIP...
NOTAM (SAINT-JORIOZ + Terrain à proximité / FIR )




Chargement des NOTAMS...
CONTACT PREFECTURE 74


Avertissement : Les données mises à disposition sont indicatives. Oxygène Drone ne pourra être tenu responsable de dégâts causés aux biens et aux personnes.